Fort Chipewyan Airport
CYPY : rendu visible

Aérodrome :











RETROUVEZ-NOUS SUR...

 
LOGIN :

S'inscrire | Disclaimer

   EN    FR    IT 

 









Légende :    VFR   VFR Marginal   IFR   IFR Intensif   IFR Très Intensif
Visi : 
Plafond : 
>= 8 km
>= 3000ft
5 à 8 km
1000 à 3000 ft
1500m à 5 km
500 à 1000 ft
800 à 1500m
200 à 500 ft
< 800m
< 200 ft
Symboles :   Orages  Brouillard  Fortes neiges  Fortes précipitations  Vent > 20 kt






- Altitude de l'aérodrome : 761 ft
- Code IATA : YPY


CYPY - Fort Chipewyan

DERNIER METAR :
  • 162000Z AUTO 34013G21KT 9SM BKN071 12/M04 A2972 RMK SLP075

METARs EXPIRÉS :
  • 161900Z AUTO 35014G23KT 310V020 9SM SCT060 11/M03 A2972 RMK SLP074
  • 161800Z AUTO 34014G25KT 300V020 9SM CLR 11/M05 A2972 RMK SLP074
  • 161700Z AUTO 32015G22KT 310V040 9SM CLR 11/M04 A2973 RMK SLP076
  • 161600Z AUTO 33016G24KT 9SM FEW033 SCT039 BKN050 09/M01 A2973 RMK SLP076

TAF TAF CYPY
Valide du 16 à 18h jusqu'au 17 à 06h UTC


161740Z 1618/1706 34015G25KT P6SM SCT060
TEMPO 1618/1706 BKN060 RMK FCST BASED ON AUTO OBS. NXT FCST BY 170000Z
FIR CZEG / Amérique du Nord



MET'MAP, la Météo Aéronautique d'un coup d'oeil ! - Copyright ORBIFLY Décembre 2007 - Disclaimer

ORBIFLY MET'MAP TEAM :

Programmation & Développement : Alexandra Zaïnal
Sur une idée originale de : Baudouin d'Aumeries
Soutien technique & logistique : Manuel Goepfert
Assistance : Marc-Olivier Méhu




SOURCES & CREDITS :

   NOAA       Earth
Advisory